Time;durP1;ratioP1;P1;durP2;ratioP2;P2;SDS_P1;SDS_P2;PMS_P1;PMS_P2;Temp;Humidity;BMP_temperature;BMP_pressure;BME280_temperature;BME280_humidity;BME280_pressure;Samples;Min_cycle;Max_cycle;Signal;HPM_P1;HPM_P2
2021/01/27 00:00:07;;;;;;;6.97;5.30;;;1.40;99.90;;;;;;5095020;28;20509;-68
2021/01/27 00:02:35;;;;;;;6.57;5.53;;;1.30;99.90;;;;;;5094711;28;20475;-69
2021/01/27 00:05:05;;;;;;;7.03;4.50;;;1.30;99.90;;;;;;5094871;28;20441;-69
2021/01/27 00:07:33;;;;;;;6.63;5.17;;;1.30;99.90;;;;;;5094806;28;20998;-68
2021/01/27 00:10:00;;;;;;;5.43;4.90;;;1.40;99.90;;;;;;5094699;28;20485;-68
2021/01/27 00:12:27;;;;;;;6.23;4.43;;;1.30;99.90;;;;;;5103722;28;20563;-68
2021/01/27 00:14:55;;;;;;;7.90;5.83;;;1.40;99.90;;;;;;5109375;28;20420;-71
2021/01/27 00:17:22;;;;;;;7.20;5.60;;;1.40;99.90;;;;;;5106696;28;20567;-68
2021/01/27 00:19:50;;;;;;;6.40;4.80;;;1.40;99.90;;;;;;5099323;28;20429;-68
2021/01/27 00:22:19;;;;;;;5.60;4.87;;;1.40;99.90;;;;;;5095639;28;20452;-71
2021/01/27 00:24:46;;;;;;;5.47;4.73;;;1.40;99.90;;;;;;5095153;28;20433;-69
2021/01/27 00:27:15;;;;;;;5.17;4.67;;;1.30;99.90;;;;;;5093456;28;20466;-68
2021/01/27 00:29:43;;;;;;;9.10;5.97;;;1.30;99.90;;;;;;5093482;28;20433;-68
2021/01/27 00:32:11;;;;;;;8.13;5.40;;;1.30;99.90;;;;;;5095846;28;20468;-68
2021/01/27 00:34:38;;;;;;;10.20;5.97;;;1.30;99.90;;;;;;5114988;28;20430;-68
2021/01/27 00:37:05;;;;;;;6.43;5.43;;;1.30;99.90;;;;;;5114798;28;20515;-68
2021/01/27 00:39:33;;;;;;;7.70;5.50;;;1.20;99.90;;;;;;5114927;28;20477;-68
2021/01/27 00:42:01;;;;;;;8.47;5.83;;;1.30;99.90;;;;;;5114354;28;20432;-68
2021/01/27 00:44:29;;;;;;;8.23;6.63;;;1.30;99.90;;;;;;5113500;28;20424;-69
2021/01/27 00:46:56;;;;;;;8.93;7.20;;;1.30;99.90;;;;;;5097737;28;20534;-71
2021/01/27 00:49:24;;;;;;;6.97;5.40;;;1.30;99.90;;;;;;5092612;28;20849;-69
2021/01/27 00:51:52;;;;;;;11.93;6.70;;;1.30;99.90;;;;;;5093756;28;20447;-68
2021/01/27 00:54:19;;;;;;;9.17;6.87;;;1.30;99.90;;;;;;5093959;28;20434;-68
2021/01/27 00:56:48;;;;;;;10.53;8.37;;;1.40;99.90;;;;;;5093204;28;20472;-70
2021/01/27 00:59:16;;;;;;;12.23;7.60;;;1.30;99.90;;;;;;5094210;28;20424;-68
2021/01/27 01:01:43;;;;;;;9.83;7.77;;;1.20;99.90;;;;;;5093378;28;20811;-68
2021/01/27 01:04:22;;;;;;;8.77;6.23;;;1.20;99.90;;;;;;5092994;28;20444;-69
2021/01/27 01:06:50;;;;;;;12.90;7.23;;;1.10;99.90;;;;;;5093746;28;20471;-68
2021/01/27 01:09:17;;;;;;;11.53;7.73;;;1.10;99.90;;;;;;5094048;28;20432;-68
2021/01/27 01:12:10;;;;;;;25.57;8.47;;;1.10;99.90;;;;;;5093866;28;20444;-68
2021/01/27 01:14:38;;;;;;;12.70;8.60;;;1.00;99.90;;;;;;5094266;28;20831;-71
2021/01/27 01:17:05;;;;;;;10.67;8.10;;;1.10;99.90;;;;;;5092276;28;20474;-68
2021/01/27 01:19:32;;;;;;;11.37;8.30;;;1.10;99.90;;;;;;5094000;28;20481;-69
2021/01/27 01:21:59;;;;;;;10.50;8.50;;;1.00;99.90;;;;;;5093767;28;20439;-68
2021/01/27 01:24:26;;;;;;;13.10;9.87;;;0.90;99.90;;;;;;5094479;28;20933;-68
2021/01/27 01:26:54;;;;;;;12.60;8.90;;;0.90;99.90;;;;;;5108924;28;20452;-68
2021/01/27 01:29:22;;;;;;;11.23;8.90;;;0.90;99.90;;;;;;5096007;28;20429;-69
2021/01/27 01:31:49;;;;;;;10.10;9.00;;;0.90;99.90;;;;;;5074848;28;21007;-69
2021/01/27 01:34:17;;;;;;;12.33;9.73;;;0.90;99.90;;;;;;5094250;28;20998;-70
2021/01/27 01:36:44;;;;;;;11.90;10.23;;;0.90;99.90;;;;;;5093929;28;20455;-69
2021/01/27 01:39:11;;;;;;;11.73;9.13;;;0.90;99.90;;;;;;5093680;28;20478;-68
2021/01/27 01:41:38;;;;;;;11.53;9.60;;;0.80;99.90;;;;;;5098139;28;20435;-68
2021/01/27 01:44:06;;;;;;;10.90;9.80;;;0.90;99.90;;;;;;5096213;28;20452;-68
2021/01/27 01:46:34;;;;;;;13.53;10.03;;;0.90;99.90;;;;;;5093049;28;20499;-69
2021/01/27 01:49:05;;;;;;;14.37;9.70;;;0.90;99.90;;;;;;5097670;28;20444;-69
2021/01/27 01:51:38;;;;;;;22.13;11.53;;;0.90;99.90;;;;;;5096753;28;20462;-68
2021/01/27 01:54:11;;;;;;;14.53;10.10;;;0.90;99.90;;;;;;5099215;28;20460;-68
2021/01/27 01:56:44;;;;;;;17.00;10.97;;;0.80;99.90;;;;;;5100464;28;20428;-69
2021/01/27 01:59:12;;;;;;;13.83;10.07;;;0.80;99.90;;;;;;5101666;28;20851;-69
2021/01/27 02:02:07;;;;;;;13.77;11.13;;;0.80;99.90;;;;;;5101932;28;20469;-69
2021/01/27 02:04:40;;;;;;;15.50;9.80;;;0.80;99.90;;;;;;5102326;28;20429;-69
2021/01/27 02:07:07;;;;;;;17.83;11.63;;;0.80;99.90;;;;;;5099184;28;20486;-69
2021/01/27 02:09:36;;;;;;;16.50;10.30;;;0.80;99.90;;;;;;5097040;28;20854;-72
2021/01/27 02:12:23;;;;;;;15.20;10.70;;;0.80;99.90;;;;;;5099021;28;20499;-71
2021/01/27 02:15:14;;;;;;;17.57;11.80;;;0.80;99.90;;;;;;5099294;28;20757;-69
2021/01/27 02:17:47;;;;;;;11.70;9.07;;;0.70;99.90;;;;;;5115194;28;20499;-68
2021/01/27 02:20:50;;;;;;;13.40;9.80;;;0.80;99.90;;;;;;5099455;28;20425;-69
2021/01/27 02:23:48;;;;;;;13.30;9.87;;;0.80;99.90;;;;;;5073766;28;20610;-69
2021/01/27 02:26:36;;;;;;;13.30;9.37;;;0.80;99.90;;;;;;5097219;28;20803;-68
2021/01/27 02:29:22;;;;;;;14.13;10.40;;;0.80;99.90;;;;;;5095970;28;20521;-69
2021/01/27 02:31:59;;;;;;;14.80;10.80;;;0.80;99.90;;;;;;5096102;28;20474;-70
2021/01/27 02:35:01;;;;;;;16.07;10.63;;;0.90;99.90;;;;;;5097154;28;20527;-71
2021/01/27 02:37:34;;;;;;;16.13;10.60;;;0.90;99.90;;;;;;5097011;28;20429;-69
2021/01/27 02:40:12;;;;;;;16.60;11.07;;;1.00;99.90;;;;;;5097260;28;20958;-69
2021/01/27 02:42:45;;;;;;;13.63;10.47;;;1.00;99.90;;;;;;5095678;28;20963;-70
2021/01/27 02:45:18;;;;;;;21.57;10.40;;;1.00;99.90;;;;;;5096877;28;20437;-69
2021/01/27 02:47:54;;;;;;;12.70;9.53;;;0.90;99.90;;;;;;5096598;28;20500;-71
2021/01/27 02:50:28;;;;;;;17.63;11.10;;;1.00;99.90;;;;;;5097540;28;20492;-69
2021/01/27 02:53:06;;;;;;;16.43;10.43;;;1.00;99.90;;;;;;5097634;28;20437;-69
2021/01/27 02:55:40;;;;;;;11.00;8.90;;;1.00;99.90;;;;;;5085412;28;20493;-71
2021/01/27 02:58:15;;;;;;;11.70;8.17;;;1.00;99.90;;;;;;5110638;28;20429;-69
2021/01/27 03:00:46;;;;;;;11.00;9.53;;;1.00;99.90;;;;;;5098805;28;20424;-70
2021/01/27 03:03:18;;;;;;;12.93;9.20;;;1.00;99.90;;;;;;5098409;28;20452;-70
2021/01/27 03:05:50;;;;;;;10.97;7.80;;;0.90;99.90;;;;;;5107093;28;20425;-69
2021/01/27 03:08:20;;;;;;;11.13;8.70;;;0.90;99.90;;;;;;5108629;28;20437;-71
2021/01/27 03:10:55;;;;;;;10.23;8.07;;;0.80;99.90;;;;;;5108185;28;20447;-69
2021/01/27 03:13:22;;;;;;;12.50;8.70;;;0.60;99.90;;;;;;5107702;28;20486;-69
2021/01/27 03:15:50;;;;;;;12.33;9.37;;;0.50;99.90;;;;;;5107789;28;20443;-69
2021/01/27 03:18:31;;;;;;;10.77;8.60;;;0.30;99.90;;;;;;5100287;28;20456;-69
2021/01/27 03:21:04;;;;;;;11.10;7.07;;;0.20;99.90;;;;;;5096187;28;21077;-71
2021/01/27 03:23:37;;;;;;;11.10;7.73;;;0.10;99.90;;;;;;5096266;28;20500;-69
2021/01/27 03:26:18;;;;;;;11.13;8.13;;;0.00;99.90;;;;;;5094967;28;20541;-69
2021/01/27 03:28:51;;;;;;;12.73;9.40;;;-0.10;99.90;;;;;;5095576;28;20518;-69
2021/01/27 03:31:18;;;;;;;11.00;7.63;;;-0.20;99.90;;;;;;5094190;28;20468;-70
2021/01/27 03:33:53;;;;;;;11.80;7.60;;;-0.40;99.90;;;;;;5095619;28;20763;-69
2021/01/27 03:36:22;;;;;;;12.33;7.40;;;-0.40;99.90;;;;;;5094238;28;20551;-69
2021/01/27 03:38:51;;;;;;;12.73;8.20;;;-0.40;99.90;;;;;;5099377;28;20945;-69
2021/01/27 03:41:22;;;;;;;12.60;7.93;;;-0.50;99.90;;;;;;5103402;28;20452;-71
2021/01/27 03:44:01;;;;;;;9.73;7.23;;;-0.60;99.90;;;;;;5100126;28;20441;-69
2021/01/27 03:46:35;;;;;;;9.67;7.70;;;-0.70;99.90;;;;;;5096348;28;20500;-69
2021/01/27 03:49:08;;;;;;;10.70;7.27;;;-0.80;99.90;;;;;;5116325;28;20434;-68
2021/01/27 03:51:38;;;;;;;9.90;7.63;;;-0.90;99.90;;;;;;5115364;28;20485;-69
2021/01/27 03:54:09;;;;;;;7.90;6.40;;;-1.00;99.90;;;;;;5115037;28;20444;-69
2021/01/27 03:56:42;;;;;;;11.67;7.70;;;-1.10;99.90;;;;;;5114625;28;20430;-69
2021/01/27 03:59:11;;;;;;;12.80;8.60;;;-1.20;99.90;;;;;;5121700;22;20422;-69
2021/01/27 04:01:51;;;;;;;12.10;8.63;;;-1.20;99.90;;;;;;5032943;28;20508;-68
2021/01/27 04:04:19;;;;;;;8.33;7.23;;;-1.30;99.90;;;;;;5016006;28;20439;-69
2021/01/27 04:06:48;;;;;;;15.53;8.03;;;-1.30;99.90;;;;;;5033820;28;20463;-68
2021/01/27 04:09:16;;;;;;;12.20;8.43;;;-1.50;99.90;;;;;;5034250;28;20470;-68
2021/01/27 04:11:44;;;;;;;13.10;9.07;;;-1.50;99.90;;;;;;5033359;28;20920;-71
2021/01/27 04:14:12;;;;;;;9.53;7.47;;;-1.70;99.90;;;;;;5033649;28;20435;-71
2021/01/27 04:16:39;;;;;;;15.80;8.70;;;-1.70;99.90;;;;;;5032874;28;20460;-69
2021/01/27 04:19:08;;;;;;;11.07;7.40;;;-1.70;99.90;;;;;;5033630;28;20506;-68
2021/01/27 04:21:35;;;;;;;14.33;7.50;;;-1.70;99.90;;;;;;5034010;28;20957;-70
2021/01/27 04:24:05;;;;;;;11.33;8.30;;;-1.80;99.90;;;;;;5035659;28;20507;-68
2021/01/27 04:26:32;;;;;;;14.27;7.57;;;-1.90;99.90;;;;;;5033337;28;20488;-68
2021/01/27 04:28:59;;;;;;;15.90;8.30;;;-1.90;99.90;;;;;;5032440;28;20529;-69
2021/01/27 04:31:27;;;;;;;10.10;7.20;;;-2.00;99.90;;;;;;5015934;28;20489;-68
2021/01/27 04:33:55;;;;;;;12.00;8.30;;;-2.00;99.90;;;;;;5001661;28;20448;-69
2021/01/27 04:36:23;;;;;;;11.97;7.20;;;-1.90;99.90;;;;;;5035468;28;20466;-68
2021/01/27 04:38:50;;;;;;;11.80;8.23;;;-1.90;99.90;;;;;;5001585;28;20446;-67
2021/01/27 04:41:19;;;;;;;12.40;9.10;;;-1.80;99.90;;;;;;5036860;28;20435;-68
2021/01/27 04:43:48;;;;;;;15.27;9.23;;;-1.80;99.90;;;;;;5036114;28;20446;-68
2021/01/27 04:46:21;;;;;;;13.00;8.37;;;-1.90;99.90;;;;;;5035266;28;20467;-68
2021/01/27 04:49:01;;;;;;;25.20;10.70;;;-1.90;99.90;;;;;;5018369;28;20605;-67
2021/01/27 04:51:35;;;;;;;18.83;10.40;;;-2.00;99.90;;;;;;5000547;28;20431;-68
2021/01/27 04:54:18;;;;;;;15.23;8.77;;;-2.10;99.90;;;;;;5033669;28;20502;-69
2021/01/27 04:57:06;;;;;;;16.20;10.00;;;-2.20;99.90;;;;;;5033562;28;20431;-68
2021/01/27 05:00:01;;;;;;;15.37;9.77;;;-2.30;99.90;;;;;;5033590;28;20475;-68
2021/01/27 05:02:46;;;;;;;19.43;10.10;;;-2.40;99.90;;;;;;5032618;28;20459;-69
2021/01/27 05:05:42;;;;;;;16.10;10.33;;;-2.30;99.90;;;;;;5033257;28;20488;-68
2021/01/27 05:08:14;;;;;;;13.93;10.37;;;-2.50;99.90;;;;;;5033204;28;20467;-68
2021/01/27 05:10:46;;;;;;;16.57;8.83;;;-2.50;99.90;;;;;;5033791;28;20430;-71
2021/01/27 05:13:26;;;;;;;13.30;9.40;;;-2.60;99.90;;;;;;5033123;28;20427;-68
2021/01/27 05:15:56;;;;;;;17.87;10.73;;;-2.60;99.90;;;;;;5001026;28;20902;-68
2021/01/27 05:18:24;;;;;;;17.10;11.03;;;-2.60;99.90;;;;;;5003213;28;20847;-71
2021/01/27 05:20:51;;;;;;;16.23;9.53;;;-2.60;99.90;;;;;;5037179;28;20471;-70
2021/01/27 05:23:18;;;;;;;13.20;10.17;;;-2.70;99.90;;;;;;5037472;28;20968;-69
2021/01/27 05:25:51;;;;;;;20.77;10.03;;;-2.70;99.90;;;;;;5019207;28;20446;-68
2021/01/27 05:28:48;;;;;;;14.87;10.50;;;-2.80;99.90;;;;;;5037334;28;20518;-68
2021/01/27 05:31:16;;;;;;;15.83;9.17;;;-2.80;99.90;;;;;;5035745;28;21096;-68
2021/01/27 05:33:46;;;;;;;21.37;11.13;;;-2.80;99.90;;;;;;5018215;28;20824;-69
2021/01/27 05:36:18;;;;;;;16.27;9.97;;;-2.80;99.90;;;;;;5018175;28;20493;-69
2021/01/27 05:38:49;;;;;;;13.47;9.10;;;-2.80;99.90;;;;;;5035843;28;20515;-68
2021/01/27 05:41:23;;;;;;;14.63;9.97;;;-2.80;99.90;;;;;;5035677;28;20434;-68
2021/01/27 05:43:54;;;;;;;18.40;11.40;;;-2.80;99.90;;;;;;5035702;28;20435;-68
2021/01/27 05:46:29;;;;;;;16.47;10.00;;;-2.90;99.90;;;;;;5034680;28;20479;-68
2021/01/27 05:48:57;;;;;;;15.87;10.60;;;-3.00;99.90;;;;;;5036170;28;20577;-66
2021/01/27 05:51:30;;;;;;;15.40;11.20;;;-3.00;99.90;;;;;;5036973;28;20435;-69
2021/01/27 05:53:59;;;;;;;14.20;8.03;;;-3.10;99.90;;;;;;5036794;28;20431;-71
2021/01/27 05:59:24;;;;;;;17.53;11.73;;;-2.90;99.90;;;;;;5036551;28;20443;-68
2021/01/27 06:01:59;;;;;;;20.97;12.77;;;-2.90;99.90;;;;;;5035802;28;20963;-68
2021/01/27 06:04:30;;;;;;;21.83;11.53;;;-2.90;99.90;;;;;;5037048;28;20493;-69
2021/01/27 06:07:04;;;;;;;26.20;13.10;;;-2.90;99.90;;;;;;5017974;28;20538;-69
2021/01/27 06:09:43;;;;;;;45.37;12.60;;;-2.90;99.90;;;;;;5018527;28;20458;-69
2021/01/27 06:12:13;;;;;;;30.20;12.17;;;-3.00;99.90;;;;;;5036712;28;20500;-70
2021/01/27 06:14:41;;;;;;;19.63;12.03;;;-3.00;99.90;;;;;;5036412;28;20439;-68
2021/01/27 06:17:20;;;;;;;22.67;11.00;;;-3.00;99.90;;;;;;5017251;28;20978;-69
2021/01/27 06:20:08;;;;;;;21.80;11.50;;;-3.00;99.90;;;;;;5001439;28;20443;-70
2021/01/27 06:22:51;;;;;;;17.20;11.20;;;-3.00;99.90;;;;;;5034818;28;20903;-70
2021/01/27 06:25:28;;;;;;;27.80;11.97;;;-2.90;99.90;;;;;;5036031;28;20450;-70
2021/01/27 06:28:21;;;;;;;29.10;11.80;;;-2.90;99.90;;;;;;5034919;28;20474;-70
2021/01/27 06:30:56;;;;;;;26.90;11.37;;;-3.00;99.90;;;;;;5033371;28;20447;-68
2021/01/27 06:33:43;;;;;;;21.50;11.23;;;-3.10;99.90;;;;;;5036564;28;20437;-69
2021/01/27 06:36:40;;;;;;;36.40;13.10;;;-3.00;99.90;;;;;;5018320;28;20439;-69
2021/01/27 06:39:24;;;;;;;35.93;14.47;;;-3.10;99.90;;;;;;5036355;28;20964;-68
2021/01/27 06:42:15;;;;;;;31.50;13.53;;;-3.10;99.90;;;;;;5018397;28;20535;-69
2021/01/27 06:44:54;;;;;;;28.83;12.33;;;-3.10;99.90;;;;;;5035657;28;20567;-69
2021/01/27 06:47:44;;;;;;;12.93;10.00;;;-3.10;99.90;;;;;;5016971;28;20610;-69
2021/01/27 06:50:29;;;;;;;21.07;10.80;;;-3.10;99.90;;;;;;5035734;28;20416;-71
2021/01/27 06:53:32;;;;;;;21.77;11.40;;;-3.00;99.90;;;;;;5011530;28;20757;-69
2021/01/27 06:56:41;;;;;;;28.10;11.67;;;-3.00;99.90;;;;;;4983848;28;20482;-68
2021/01/27 06:59:52;;;;;;;30.93;12.23;;;-2.90;99.90;;;;;;4988793;28;20544;-68
2021/01/27 07:02:56;;;;;;;18.30;11.53;;;-3.00;99.90;;;;;;5025866;28;20479;-69
2021/01/27 07:05:42;;;;;;;21.43;10.80;;;-2.80;99.90;;;;;;5026217;28;20493;-69
2021/01/27 07:08:21;;;;;;;23.40;11.50;;;-2.80;99.90;;;;;;5024984;28;20486;-69
2021/01/27 07:11:03;;;;;;;18.47;9.27;;;-2.90;99.90;;;;;;5025012;28;20579;-68
2021/01/27 07:14:06;;;;;;;20.00;11.00;;;-2.90;99.90;;;;;;5026777;28;20456;-68
2021/01/27 07:16:49;;;;;;;15.07;9.60;;;-2.80;99.90;;;;;;5011333;28;20499;-69
2021/01/27 07:19:39;;;;;;;13.77;8.27;;;-2.70;99.90;;;;;;5026578;28;20216;-68
2021/01/27 07:22:15;;;;;;;14.10;9.60;;;-2.60;99.90;;;;;;5041139;28;20547;-69
2021/01/27 07:24:52;;;;;;;17.10;10.27;;;-2.40;99.90;;;;;;5024860;28;20458;-70
2021/01/27 07:27:23;;;;;;;15.13;9.30;;;-2.40;99.90;;;;;;5007514;28;20498;-70
2021/01/27 07:29:57;;;;;;;18.30;10.97;;;-2.40;99.90;;;;;;5008103;28;20570;-69
2021/01/27 07:32:30;;;;;;;13.10;8.67;;;-2.40;99.90;;;;;;5023309;28;20501;-68
2021/01/27 07:35:05;;;;;;;14.27;9.37;;;-2.20;99.90;;;;;;5024568;28;20991;-69
2021/01/27 07:37:38;;;;;;;19.40;10.13;;;-2.00;99.90;;;;;;5024317;28;20527;-68
2021/01/27 07:40:12;;;;;;;13.10;9.57;;;-1.80;99.90;;;;;;5025418;28;20972;-69
2021/01/27 07:42:47;;;;;;;18.87;9.30;;;-1.70;99.90;;;;;;5023513;28;20791;-68
2021/01/27 07:45:20;;;;;;;12.33;8.00;;;-1.50;99.90;;;;;;5023009;28;20470;-69
2021/01/27 07:47:55;;;;;;;10.67;9.03;;;-1.20;99.90;;;;;;5024858;28;20491;-69
2021/01/27 07:50:24;;;;;;;14.20;8.60;;;-1.00;99.90;;;;;;5023714;28;22145;-69
2021/01/27 07:53:02;;;;;;;23.87;10.03;;;-1.00;99.90;;;;;;5025972;28;20474;-69
2021/01/27 07:55:36;;;;;;;15.83;9.10;;;-1.00;99.90;;;;;;5039419;28;20478;-69
2021/01/27 07:58:08;;;;;;;12.53;8.50;;;-1.10;99.90;;;;;;5024911;28;20819;-70
2021/01/27 08:00:44;;;;;;;21.93;9.13;;;-1.30;99.90;;;;;;5022892;28;20886;-68
2021/01/27 08:03:33;;;;;;;13.53;8.10;;;-1.30;99.90;;;;;;5024673;28;21004;-68
2021/01/27 08:06:05;;;;;;;14.70;9.30;;;-1.30;99.90;;;;;;5024619;28;20493;-68
2021/01/27 08:08:45;;;;;;;10.13;7.70;;;-1.20;99.90;;;;;;5024298;28;20522;-68
2021/01/27 08:11:18;;;;;;;12.17;9.47;;;-1.10;99.90;;;;;;5024030;28;20538;-69
2021/01/27 08:13:46;;;;;;;12.70;7.90;;;-1.00;99.90;;;;;;5022553;28;21511;-68
2021/01/27 08:16:36;;;;;;;18.83;9.03;;;-0.90;99.90;;;;;;5021480;28;20487;-68
2021/01/27 08:19:20;;;;;;;12.37;7.53;;;-0.60;99.90;;;;;;5006159;28;20481;-69
2021/01/27 08:22:01;;;;;;;18.13;8.83;;;-0.20;99.90;;;;;;5024285;28;20606;-69
2021/01/27 08:24:57;;;;;;;10.10;7.70;;;0.50;99.90;;;;;;5024544;28;20455;-69
2021/01/27 08:27:35;;;;;;;9.80;6.93;;;0.90;99.90;;;;;;5023892;28;20502;-68
2021/01/27 08:30:34;;;;;;;11.73;6.70;;;1.10;99.90;;;;;;5022176;28;20477;-69
2021/01/27 08:33:34;;;;;;;9.53;6.80;;;0.90;99.90;;;;;;5021038;28;20550;-68
2021/01/27 08:36:05;;;;;;;15.67;7.73;;;1.20;99.90;;;;;;5024235;28;20506;-69
2021/01/27 08:38:35;;;;;;;9.57;6.37;;;1.80;99.90;;;;;;5023954;28;20552;-69
2021/01/27 08:41:06;;;;;;;7.73;5.70;;;2.40;99.90;;;;;;5023604;28;20465;-69
2021/01/27 08:43:39;;;;;;;9.23;6.60;;;2.60;99.90;;;;;;5022275;28;20459;-69
2021/01/27 08:46:27;;;;;;;6.87;5.53;;;2.60;99.90;;;;;;5020200;28;20560;-69
2021/01/27 08:48:58;;;;;;;10.70;6.20;;;1.90;99.90;;;;;;5022233;28;20582;-69
2021/01/27 08:51:55;;;;;;;8.80;6.50;;;2.50;99.90;;;;;;5020361;28;20459;-69
2021/01/27 08:54:29;;;;;;;8.30;6.10;;;3.20;99.90;;;;;;4944482;28;20504;-70
2021/01/27 08:57:19;;;;;;;12.50;6.90;;;3.20;99.90;;;;;;5011585;28;20636;-69
2021/01/27 09:00:06;;;;;;;8.10;5.87;;;2.70;99.90;;;;;;5021853;28;20827;-69
2021/01/27 09:02:49;;;;;;;8.50;5.43;;;3.00;99.90;;;;;;4997290;28;20586;-70
2021/01/27 09:05:38;;;;;;;9.43;5.70;;;3.50;99.90;;;;;;4998498;28;20469;-69
2021/01/27 09:08:30;;;;;;;6.80;5.20;;;3.50;99.90;;;;;;4983353;28;20507;-70
2021/01/27 09:11:00;;;;;;;7.07;5.90;;;3.40;99.90;;;;;;4983240;28;21023;-69
2021/01/27 09:13:35;;;;;;;10.57;5.60;;;3.90;99.90;;;;;;4983779;28;20450;-69
2021/01/27 09:16:05;;;;;;;6.00;5.40;;;3.70;99.90;;;;;;4990005;28;20922;-69
2021/01/27 09:18:35;;;;;;;8.13;4.90;;;3.40;99.90;;;;;;5002941;28;20479;-69
2021/01/27 09:24:08;;;;;;;11.13;5.50;;;3.10;99.90;;;;;;5001916;28;21651;-69
2021/01/27 09:26:42;;;;;;;9.13;5.73;;;3.30;99.90;;;;;;5001172;28;21082;-69
2021/01/27 09:29:13;;;;;;;9.00;5.20;;;2.80;99.90;;;;;;5003193;28;20531;-69
2021/01/27 09:31:41;;;;;;;6.90;5.63;;;2.80;99.90;;;;;;4987500;28;20481;-70
2021/01/27 09:34:16;;;;;;;6.60;4.40;;;2.40;99.90;;;;;;4965359;28;20480;-69
2021/01/27 09:36:45;;;;;;;6.77;5.23;;;2.10;99.90;;;;;;4981637;28;20465;-69
2021/01/27 09:39:12;;;;;;;10.77;6.00;;;2.30;99.90;;;;;;4982987;28;20530;-68
2021/01/27 09:41:46;;;;;;;5.90;5.30;;;2.40;99.90;;;;;;4983326;28;20857;-69
2021/01/27 09:44:24;;;;;;;8.60;5.30;;;2.60;99.90;;;;;;4983232;28;20468;-69
2021/01/27 09:46:54;;;;;;;5.47;4.80;;;2.40;99.90;;;;;;4996354;28;20492;-69
2021/01/27 09:49:22;;;;;;;5.80;5.20;;;2.10;99.90;;;;;;5001546;28;20457;-70
2021/01/27 09:51:53;;;;;;;6.27;5.50;;;1.90;99.90;;;;;;5001605;28;20573;-69
2021/01/27 09:54:23;;;;;;;6.10;4.97;;;2.10;99.90;;;;;;5017403;28;20971;-70
2021/01/27 09:57:00;;;;;;;11.23;5.13;;;2.40;99.90;;;;;;5000768;28;20519;-69
2021/01/27 09:59:32;;;;;;;6.33;5.30;;;2.40;99.90;;;;;;5004158;28;20973;-69
2021/01/27 10:02:00;;;;;;;12.77;5.30;;;2.20;99.90;;;;;;5023600;28;20568;-69
2021/01/27 10:04:34;;;;;;;7.50;5.47;;;2.40;99.90;;;;;;5007811;28;20451;-68
2021/01/27 10:07:11;;;;;;;9.20;5.70;;;2.50;99.90;;;;;;5007570;28;20463;-69
2021/01/27 10:09:47;;;;;;;13.80;7.00;;;2.50;99.90;;;;;;5024542;28;21061;-70
2021/01/27 10:12:22;;;;;;;6.53;5.90;;;2.40;99.90;;;;;;5026096;28;20893;-69
2021/01/27 10:14:58;;;;;;;6.23;5.17;;;2.30;99.90;;;;;;5025469;28;21033;-68
2021/01/27 10:17:31;;;;;;;7.07;5.40;;;2.10;99.90;;;;;;5025432;28;21061;-69
2021/01/27 10:20:18;;;;;;;5.90;4.90;;;2.00;99.90;;;;;;5025641;28;20516;-69
2021/01/27 10:22:56;;;;;;;7.07;4.70;;;2.00;99.90;;;;;;5026419;28;20482;-68
2021/01/27 10:25:30;;;;;;;7.67;4.97;;;2.10;99.90;;;;;;5025520;28;20451;-69
2021/01/27 10:28:18;;;;;;;6.70;4.77;;;2.30;99.90;;;;;;5025742;28;20662;-68
2021/01/27 10:30:50;;;;;;;13.23;6.03;;;2.60;99.90;;;;;;5025359;28;20956;-68
2021/01/27 10:33:41;;;;;;;6.80;5.10;;;2.60;99.90;;;;;;5025228;28;21876;-68
2021/01/27 10:36:28;;;;;;;6.37;5.10;;;2.40;99.90;;;;;;5007845;28;20598;-69
2021/01/27 10:39:17;;;;;;;6.60;5.57;;;2.40;99.90;;;;;;5025409;28;20463;-69
2021/01/27 10:42:21;;;;;;;9.87;6.03;;;2.60;99.90;;;;;;5007658;28;20539;-69
2021/01/27 10:45:32;;;;;;;9.57;6.57;;;2.80;99.90;;;;;;5024930;28;20822;-70
2021/01/27 10:48:08;;;;;;;6.67;4.97;;;2.40;99.90;;;;;;4963633;28;20946;-71
2021/01/27 10:50:38;;;;;;;8.20;5.13;;;2.50;99.90;;;;;;5007012;28;20821;-69
2021/01/27 10:53:10;;;;;;;7.57;5.80;;;2.40;99.90;;;;;;5007348;28;20507;-69
2021/01/27 10:55:38;;;;;;;8.73;5.60;;;2.10;99.90;;;;;;5006798;28;20434;-69
2021/01/27 10:58:08;;;;;;;8.27;6.30;;;1.90;99.90;;;;;;5007069;28;20470;-69
2021/01/27 11:01:01;;;;;;;8.87;6.20;;;2.10;99.90;;;;;;5023973;28;20482;-70
2021/01/27 11:03:30;;;;;;;7.77;5.63;;;2.00;99.90;;;;;;5024486;28;20520;-69
2021/01/27 11:05:57;;;;;;;5.50;4.97;;;1.90;99.90;;;;;;5023756;28;20464;-71
2021/01/27 11:08:27;;;;;;;7.23;5.30;;;2.20;99.90;;;;;;5024935;28;20502;-69
2021/01/27 11:10:57;;;;;;;6.23;4.23;;;2.60;99.90;;;;;;5023602;28;20457;-69
2021/01/27 11:13:25;;;;;;;7.43;5.17;;;2.70;99.90;;;;;;5025799;28;20486;-69
2021/01/27 11:15:52;;;;;;;10.10;5.30;;;2.90;99.90;;;;;;5025631;28;20475;-70
2021/01/27 11:18:21;;;;;;;7.00;5.67;;;2.80;99.90;;;;;;5008757;28;20958;-70
2021/01/27 11:20:50;;;;;;;7.17;6.30;;;2.40;99.90;;;;;;5023759;28;20957;-69
2021/01/27 11:23:23;;;;;;;8.10;5.30;;;2.70;99.90;;;;;;5025324;28;20451;-71
2021/01/27 11:25:53;;;;;;;8.47;5.90;;;3.00;99.90;;;;;;5007585;28;20479;-70
2021/01/27 11:28:21;;;;;;;8.53;6.30;;;2.80;99.90;;;;;;4990646;28;20948;-69
2021/01/27 11:30:49;;;;;;;6.27;5.63;;;2.80;99.90;;;;;;5005691;28;21593;-69
2021/01/27 11:33:22;;;;;;;7.97;5.70;;;2.80;99.90;;;;;;5005906;28;20565;-69
2021/01/27 11:35:51;;;;;;;9.93;6.33;;;2.70;99.90;;;;;;5006160;28;20501;-69
2021/01/27 11:38:18;;;;;;;9.87;5.27;;;3.00;99.90;;;;;;5025137;28;20487;-70
2021/01/27 11:40:47;;;;;;;7.43;5.67;;;3.40;99.90;;;;;;5024370;28;20500;-69
2021/01/27 11:43:15;;;;;;;9.23;6.77;;;3.60;99.90;;;;;;5024557;28;20836;-70
2021/01/27 11:45:44;;;;;;;6.77;5.87;;;3.30;99.90;;;;;;5022171;28;20463;-69
2021/01/27 11:48:31;;;;;;;8.27;6.00;;;2.80;99.90;;;;;;5023212;28;21032;-70
2021/01/27 11:51:00;;;;;;;9.20;5.80;;;2.90;99.90;;;;;;5023754;28;20483;-70
2021/01/27 11:53:30;;;;;;;9.40;6.50;;;3.10;99.90;;;;;;5024256;28;20997;-69
2021/01/27 11:55:58;;;;;;;7.30;6.00;;;2.70;99.90;;;;;;5006250;28;20979;-70
2021/01/27 11:58:26;;;;;;;7.87;6.33;;;2.60;99.90;;;;;;5022504;28;20462;-69
2021/01/27 12:00:53;;;;;;;8.50;6.40;;;2.60;99.90;;;;;;5025330;28;20487;-69
2021/01/27 12:03:21;;;;;;;8.70;6.57;;;2.60;99.90;;;;;;4993069;28;20550;-70
2021/01/27 12:05:49;;;;;;;13.03;6.77;;;2.40;99.90;;;;;;4990504;28;20558;-69
2021/01/27 12:08:18;;;;;;;9.20;7.63;;;2.70;99.90;;;;;;5005468;28;20499;-69
2021/01/27 12:10:48;;;;;;;12.00;6.50;;;2.80;99.90;;;;;;5023358;28;20779;-69
2021/01/27 12:13:16;;;;;;;11.87;7.37;;;2.60;99.90;;;;;;5021930;28;20474;-69
2021/01/27 12:15:45;;;;;;;10.17;7.07;;;2.50;99.90;;;;;;5023075;28;20522;-69
2021/01/27 12:18:38;;;;;;;8.33;6.43;;;2.30;99.90;;;;;;5023828;28;20471;-69
2021/01/27 12:21:06;;;;;;;10.37;6.50;;;2.60;99.90;;;;;;5023543;28;20993;-69
2021/01/27 12:23:35;;;;;;;7.70;6.27;;;2.90;99.90;;;;;;5006252;28;20463;-69
2021/01/27 12:26:03;;;;;;;10.27;6.77;;;2.80;99.90;;;;;;5024020;28;20495;-69
2021/01/27 12:28:31;;;;;;;11.60;6.67;;;2.70;99.90;;;;;;5024227;28;20526;-70
2021/01/27 12:30:58;;;;;;;9.50;7.07;;;2.40;99.90;;;;;;5004614;28;20463;-69
2021/01/27 12:33:26;;;;;;;10.27;7.13;;;2.40;99.90;;;;;;5006601;28;20545;-70
2021/01/27 12:35:53;;;;;;;14.00;9.23;;;2.80;99.90;;;;;;5006377;28;20580;-70
2021/01/27 12:38:21;;;;;;;9.23;7.27;;;3.20;99.90;;;;;;5006103;28;20473;-70
2021/01/27 12:40:49;;;;;;;6.80;5.60;;;3.30;99.90;;;;;;5025190;28;20481;-70
2021/01/27 12:43:17;;;;;;;8.13;6.33;;;3.30;99.90;;;;;;5023894;28;20919;-70
2021/01/27 12:45:45;;;;;;;9.27;6.63;;;3.20;99.90;;;;;;5021687;28;20494;-70
2021/01/27 12:48:12;;;;;;;8.60;6.83;;;2.80;99.90;;;;;;5023105;28;20586;-69
2021/01/27 12:50:40;;;;;;;7.30;6.60;;;2.80;99.90;;;;;;5023542;28;20950;-69
2021/01/27 12:53:08;;;;;;;8.23;5.80;;;3.00;99.90;;;;;;5023413;28;20558;-70
2021/01/27 12:55:35;;;;;;;7.00;5.73;;;3.10;99.90;;;;;;5021542;28;20579;-69
2021/01/27 12:58:04;;;;;;;7.67;5.70;;;3.10;99.90;;;;;;5005111;28;20455;-70
2021/01/27 13:00:57;;;;;;;8.93;6.20;;;3.30;99.90;;;;;;5022977;28;20619;-70
2021/01/27 13:03:24;;;;;;;6.10;5.50;;;3.50;99.90;;;;;;5022701;28;20471;-70
2021/01/27 13:05:51;;;;;;;8.53;6.60;;;3.60;99.90;;;;;;5023394;28;21012;-71
2021/01/27 13:08:19;;;;;;;7.07;5.00;;;3.30;99.90;;;;;;5023085;28;20973;-69
2021/01/27 13:10:46;;;;;;;7.07;6.27;;;2.80;99.90;;;;;;5022914;28;20430;-69
2021/01/27 13:13:17;;;;;;;6.10;5.07;;;2.80;99.90;;;;;;5023005;28;20544;-70
2021/01/27 13:15:44;;;;;;;6.63;5.13;;;2.80;99.90;;;;;;5004144;28;20486;-68
2021/01/27 13:18:14;;;;;;;9.07;6.97;;;2.50;99.90;;;;;;5022976;28;20600;-69
2021/01/27 13:20:42;;;;;;;7.57;5.30;;;2.60;99.90;;;;;;5004598;28;21143;-69
2021/01/27 13:23:09;;;;;;;9.80;8.57;;;2.90;99.90;;;;;;5004842;28;20990;-69
2021/01/27 13:25:37;;;;;;;8.10;6.50;;;3.00;99.90;;;;;;5022751;28;21030;-70
2021/01/27 13:28:05;;;;;;;18.43;10.23;;;2.90;99.90;;;;;;5022946;28;20530;-69